Impacts TAF Board INFO
IDs:

KIAD - Washington/Dulles In, VA, US

Issued at 2341 UTC 10 Dec 2016
Updated at 0209 UTC 11 Dec 2016
Potential Impact None Slight Moderate High
Time0152Z 11/03Z 11/04Z 11/05Z 11/06Z 11/07Z 11/08Z 11/09Z 11/10Z 11/11Z 11/12Z 11/13Z 11/14Z 11/15Z
Type OBS PRVL PRVL PRVL PRVL PRVL PRVL PRVL PRVL PRVL PRVL PRVL PRVL PRVL
VIS 10 >6 >6 >6 >6 >6 >6 >6 >6 >6 >6 >6 >6 >6
CIG -- -- -- -- 100 100 100 100 50 50 50 50 50 90
Cover CLR FEW FEW FEW BKN BKN BKN BKN OVC OVC OVC OVC OVC OVC
FltCat VFR VFR VFR VFR VFR VFR VFR VFR VFR VFR VFR VFR VFR VFR
WX -- -- -- -- -- -- -- -- -- -- -- -- -- --
WDir 320 310 310 310 VRB VRB VRB VRB VRB VRB VRB VRB VRB 160
WSpd 5 6 6 6 0 0 0 0 0 0 0 0 0 6
WGst -- -- -- -- -- -- -- -- -- -- -- -- -- --

Raw TAF
KIAD 102341Z 1100/1206 31006KT P6SM FEW060
  FM110600 00000KT P6SM BKN100
  FM111000 00000KT P6SM OVC050
  FM111500 16006KT P6SM OVC090
  FM120500 19009KT P6SM OVC100


Raw METAR
KIAD 110152Z 32005KT 10SM CLR M03/M12 A3052 RMK AO2 SLP337 T10331117
KIAD 110052Z 32008KT 10SM CLR M03/M12 A3052 RMK AO2 SLP338 T10281117
KIAD 102352Z 32008KT 10SM CLR M02/M12 A3051 RMK AO2 SLP335 T10171117 10017 21022 51015

METAR Board
Radar Display
Forecast Discussion